Time;durP1;ratioP1;P1;durP2;ratioP2;P2;SDS_P1;SDS_P2;PMS_P1;PMS_P2;Temp;Humidity;BMP_temperature;BMP_pressure;BME280_temperature;BME280_humidity;BME280_pressure;Samples;Min_cycle;Max_cycle;Signal;HPM_P1;HPM_P2
2022/04/24 00:01:32;;;;;;;42.78;22.13;;;;;;;;;;5015960;28;20058;-83
2022/04/24 00:03:57;;;;;;;40.40;22.60;;;;;;;;;;5015748;28;20041;-81
2022/04/24 00:06:23;;;;;;;29.08;19.77;;;;;;;;;;5012195;28;20129;-82
2022/04/24 00:08:50;;;;;;;35.50;21.13;;;;;;;;;;5016700;28;20498;-82
2022/04/24 00:11:16;;;;;;;36.90;21.85;;;;;;;;;;5019834;28;20045;-82
2022/04/24 00:13:43;;;;;;;32.50;22.40;;;;;;;;;;5022104;28;20045;-82
2022/04/24 00:16:09;;;;;;;41.08;23.33;;;;;;;;;;5016357;28;20058;-79
2022/04/24 00:18:35;;;;;;;44.20;24.23;;;;;;;;;;5000997;28;20052;-79
2022/04/24 00:21:01;;;;;;;36.60;22.92;;;;;;;;;;4993437;28;20434;-78
2022/04/24 00:23:27;;;;;;;42.42;23.50;;;;;;;;;;4995166;28;20037;-78
2022/04/24 00:25:53;;;;;;;44.22;25.15;;;;;;;;;;4993154;28;20073;-77
2022/04/24 00:28:19;;;;;;;46.22;23.95;;;;;;;;;;5010646;28;20048;-77
2022/04/24 00:30:45;;;;;;;36.83;22.85;;;;;;;;;;5010634;28;20037;-79
2022/04/24 00:33:11;;;;;;;38.13;23.60;;;;;;;;;;4992073;28;20108;-76
2022/04/24 00:35:36;;;;;;;42.00;24.00;;;;;;;;;;4992847;28;20042;-76
2022/04/24 00:38:02;;;;;;;36.63;24.80;;;;;;;;;;5010316;28;20042;-78
2022/04/24 00:40:28;;;;;;;39.47;24.25;;;;;;;;;;4992854;28;20115;-78
2022/04/24 00:42:54;;;;;;;41.63;25.17;;;;;;;;;;5010421;28;20449;-78
2022/04/24 00:45:20;;;;;;;39.83;22.85;;;;;;;;;;5010546;28;20511;-76
2022/04/24 00:47:48;;;;;;;36.60;21.83;;;;;;;;;;4992319;28;20046;-75
2022/04/24 00:50:14;;;;;;;30.13;20.38;;;;;;;;;;5010168;28;20041;-76
2022/04/24 00:52:40;;;;;;;34.17;19.50;;;;;;;;;;5010359;28;20045;-77
2022/04/24 00:55:06;;;;;;;37.10;22.45;;;;;;;;;;4993357;28;20528;-74
2022/04/24 00:57:32;;;;;;;29.35;19.92;;;;;;;;;;4992727;28;20052;-78
2022/04/24 00:59:58;;;;;;;30.95;20.02;;;;;;;;;;4992396;28;20042;-79
2022/04/24 01:02:24;;;;;;;28.58;19.63;;;;;;;;;;4992346;28;20161;-78
2022/04/24 01:04:49;;;;;;;31.23;20.33;;;;;;;;;;5009861;28;20061;-77
2022/04/24 01:07:15;;;;;;;33.67;20.10;;;;;;;;;;5009965;28;20414;-76
2022/04/24 01:09:41;;;;;;;28.58;20.60;;;;;;;;;;5009843;28;20046;-76
2022/04/24 01:12:07;;;;;;;35.63;21.05;;;;;;;;;;5009921;28;20538;-75
2022/04/24 01:14:33;;;;;;;31.17;20.85;;;;;;;;;;5008152;28;20061;-75
2022/04/24 01:17:00;;;;;;;36.03;19.40;;;;;;;;;;5009565;28;20042;-76
2022/04/24 01:19:25;;;;;;;33.78;22.13;;;;;;;;;;5009993;28;20045;-76
2022/04/24 01:21:52;;;;;;;34.92;20.50;;;;;;;;;;5010728;28;20050;-74
2022/04/24 01:24:19;;;;;;;40.92;22.02;;;;;;;;;;5012191;28;20556;-78
2022/04/24 01:26:45;;;;;;;38.22;21.02;;;;;;;;;;5009811;28;20281;-77
2022/04/24 01:29:11;;;;;;;36.03;20.83;;;;;;;;;;5011415;28;20301;-77
2022/04/24 01:31:38;;;;;;;35.95;20.42;;;;;;;;;;5017208;28;20042;-78
2022/04/24 01:34:03;;;;;;;29.75;19.98;;;;;;;;;;5019281;28;20053;-77
2022/04/24 01:36:30;;;;;;;37.10;21.67;;;;;;;;;;5015546;28;20133;-77
2022/04/24 01:38:55;;;;;;;32.60;20.20;;;;;;;;;;5009842;28;20057;-76
2022/04/24 01:41:21;;;;;;;27.73;19.10;;;;;;;;;;5009792;28;20494;-77
2022/04/24 01:43:48;;;;;;;34.10;19.65;;;;;;;;;;5011219;28;20052;-76
2022/04/24 01:46:14;;;;;;;33.80;19.30;;;;;;;;;;5013599;28;20247;-76
2022/04/24 01:48:40;;;;;;;38.35;20.02;;;;;;;;;;4995425;28;20130;-76
2022/04/24 01:51:06;;;;;;;33.13;19.27;;;;;;;;;;4979882;28;20046;-77
2022/04/24 01:53:32;;;;;;;30.45;18.80;;;;;;;;;;5013298;28;20037;-76
2022/04/24 01:55:58;;;;;;;30.60;19.10;;;;;;;;;;4996480;28;20128;-76
2022/04/24 01:58:25;;;;;;;30.02;17.85;;;;;;;;;;5015775;28;20041;-77
2022/04/24 02:00:51;;;;;;;30.70;18.83;;;;;;;;;;5014839;28;20050;-77
2022/04/24 02:03:16;;;;;;;27.63;17.35;;;;;;;;;;5015363;28;20467;-75
2022/04/24 02:05:42;;;;;;;28.27;17.05;;;;;;;;;;5014823;28;20057;-77
2022/04/24 02:08:08;;;;;;;27.80;17.33;;;;;;;;;;5014305;28;20042;-77
2022/04/24 02:10:34;;;;;;;31.55;18.23;;;;;;;;;;5011937;28;20069;-77
2022/04/24 02:13:00;;;;;;;31.15;16.45;;;;;;;;;;5013017;28;20037;-76
2022/04/24 02:15:26;;;;;;;27.38;16.55;;;;;;;;;;5012886;28;20093;-77
2022/04/24 02:17:52;;;;;;;34.15;18.20;;;;;;;;;;5012708;28;20052;-76
2022/04/24 02:20:18;;;;;;;25.88;17.08;;;;;;;;;;5013169;28;20129;-76
2022/04/24 02:22:44;;;;;;;21.88;16.92;;;;;;;;;;5012742;28;20072;-76
2022/04/24 02:25:10;;;;;;;31.25;16.45;;;;;;;;;;5011625;28;20085;-75
2022/04/24 02:27:37;;;;;;;33.22;17.00;;;;;;;;;;5012432;28;20041;-76
2022/04/24 02:30:03;;;;;;;28.90;17.13;;;;;;;;;;5012749;28;20038;-76
2022/04/24 02:32:29;;;;;;;31.02;17.10;;;;;;;;;;5012760;28;20507;-77
2022/04/24 02:34:54;;;;;;;31.73;17.45;;;;;;;;;;4995314;28;20041;-76
2022/04/24 02:37:22;;;;;;;31.02;17.02;;;;;;;;;;5011311;28;20068;-76
2022/04/24 02:39:47;;;;;;;33.30;17.15;;;;;;;;;;4994854;28;20049;-76
2022/04/24 02:42:13;;;;;;;28.80;16.98;;;;;;;;;;4994733;28;20041;-76
2022/04/24 02:44:39;;;;;;;24.35;16.42;;;;;;;;;;5012523;28;20397;-76
2022/04/24 02:47:05;;;;;;;24.48;15.38;;;;;;;;;;4994799;28;20095;-76
2022/04/24 02:49:31;;;;;;;26.92;16.20;;;;;;;;;;5011359;28;20041;-76
2022/04/24 02:51:57;;;;;;;27.25;16.38;;;;;;;;;;5011123;28;20044;-76
2022/04/24 02:54:23;;;;;;;28.75;15.93;;;;;;;;;;4974858;28;20141;-77
2022/04/24 02:56:48;;;;;;;22.55;15.05;;;;;;;;;;4992059;28;20089;-77
2022/04/24 02:59:16;;;;;;;20.50;14.73;;;;;;;;;;4992817;28;20050;-76
2022/04/24 03:01:42;;;;;;;21.00;15.70;;;;;;;;;;4991361;28;20502;-76
2022/04/24 03:04:08;;;;;;;22.17;12.82;;;;;;;;;;4975197;28;20077;-76
2022/04/24 03:06:34;;;;;;;20.25;15.75;;;;;;;;;;4992534;28;20054;-77
2022/04/24 03:09:00;;;;;;;29.55;15.07;;;;;;;;;;4995847;28;20054;-77
2022/04/24 03:11:26;;;;;;;20.60;14.00;;;;;;;;;;4993672;28;20073;-77
2022/04/24 03:13:52;;;;;;;24.40;15.52;;;;;;;;;;4992019;28;20042;-75
2022/04/24 03:16:17;;;;;;;22.92;15.20;;;;;;;;;;4992491;28;20043;-75
2022/04/24 03:18:43;;;;;;;28.23;14.98;;;;;;;;;;4992311;28;20050;-75
2022/04/24 03:21:10;;;;;;;16.95;13.48;;;;;;;;;;4992393;28;20461;-76
2022/04/24 03:23:36;;;;;;;24.55;15.13;;;;;;;;;;4958392;28;20092;-77
2022/04/24 03:26:02;;;;;;;22.30;14.45;;;;;;;;;;4988392;28;20064;-77
2022/04/24 03:28:28;;;;;;;22.05;14.98;;;;;;;;;;5011600;28;20042;-76
2022/04/24 03:30:54;;;;;;;22.40;13.98;;;;;;;;;;5011467;28;20465;-75
2022/04/24 03:33:20;;;;;;;32.70;14.80;;;;;;;;;;5011482;28;20042;-77
2022/04/24 03:35:46;;;;;;;21.05;14.48;;;;;;;;;;4993996;28;20050;-77
2022/04/24 03:38:11;;;;;;;21.17;14.48;;;;;;;;;;5011261;28;20034;-76
2022/04/24 03:40:37;;;;;;;25.40;15.05;;;;;;;;;;5011443;28;20399;-76
2022/04/24 03:43:03;;;;;;;17.23;13.25;;;;;;;;;;5011291;28;20042;-76
2022/04/24 03:45:29;;;;;;;25.05;14.30;;;;;;;;;;5011418;28;20049;-76
2022/04/24 03:47:55;;;;;;;23.83;14.43;;;;;;;;;;5010990;28;20096;-76
2022/04/24 03:50:21;;;;;;;21.98;13.68;;;;;;;;;;5011527;28;20085;-77
2022/04/24 03:52:47;;;;;;;22.58;14.30;;;;;;;;;;5010962;28;20038;-76
2022/04/24 03:55:13;;;;;;;21.75;14.10;;;;;;;;;;5011694;28;20530;-76
2022/04/24 03:57:38;;;;;;;17.10;14.02;;;;;;;;;;5011013;28;20418;-76
2022/04/24 04:00:05;;;;;;;26.20;14.38;;;;;;;;;;5011047;28;20052;-77
2022/04/24 04:02:46;;;;;;;26.33;14.60;;;;;;;;;;5010939;28;20462;-76
2022/04/24 04:05:13;;;;;;;19.30;14.25;;;;;;;;;;5009906;28;20526;-76
2022/04/24 04:07:38;;;;;;;28.20;14.65;;;;;;;;;;5010657;28;20581;-77
2022/04/24 04:10:05;;;;;;;21.98;13.75;;;;;;;;;;4993541;28;20510;-76
2022/04/24 04:12:31;;;;;;;22.58;14.40;;;;;;;;;;5011213;28;20245;-77
2022/04/24 04:14:57;;;;;;;22.02;13.32;;;;;;;;;;5010749;28;20175;-77
2022/04/24 04:17:23;;;;;;;23.42;13.45;;;;;;;;;;5009677;28;20053;-76
2022/04/24 04:19:48;;;;;;;25.13;13.98;;;;;;;;;;5010729;28;20041;-76
2022/04/24 04:22:15;;;;;;;16.58;13.15;;;;;;;;;;5009781;28;20148;-77
2022/04/24 04:24:42;;;;;;;21.88;13.93;;;;;;;;;;5011234;28;20069;-77
2022/04/24 04:27:08;;;;;;;22.52;13.35;;;;;;;;;;5009362;28;20056;-77
2022/04/24 04:29:36;;;;;;;17.08;13.32;;;;;;;;;;5010930;28;20458;-75
2022/04/24 04:32:06;;;;;;;25.30;14.30;;;;;;;;;;4993069;28;20079;-77
2022/04/24 04:34:31;;;;;;;27.33;15.25;;;;;;;;;;5010687;28;20069;-78
2022/04/24 04:36:57;;;;;;;22.75;14.82;;;;;;;;;;5010402;28;20072;-76
2022/04/24 04:39:39;;;;;;;26.92;15.10;;;;;;;;;;5009627;28;20560;-76
2022/04/24 04:42:06;;;;;;;20.55;14.63;;;;;;;;;;5010758;28;20132;-76
2022/04/24 04:44:31;;;;;;;20.48;15.45;;;;;;;;;;5010367;28;20120;-77
2022/04/24 04:46:57;;;;;;;24.38;15.68;;;;;;;;;;5010328;28;20042;-77
2022/04/24 04:49:23;;;;;;;20.30;12.15;;;;;;;;;;5010468;28;20125;-78
2022/04/24 04:51:49;;;;;;;24.98;15.38;;;;;;;;;;4992798;28;20137;-78
2022/04/24 04:54:15;;;;;;;20.02;12.60;;;;;;;;;;5011253;28;20077;-77
2022/04/24 04:56:41;;;;;;;23.33;15.40;;;;;;;;;;5013269;28;20516;-78
2022/04/24 04:59:06;;;;;;;21.48;12.68;;;;;;;;;;5010771;28;20034;-76
2022/04/24 05:01:33;;;;;;;21.65;14.43;;;;;;;;;;4977536;28;20045;-76
2022/04/24 05:03:58;;;;;;;20.90;14.15;;;;;;;;;;5012264;28;20045;-77
2022/04/24 05:06:24;;;;;;;22.45;14.77;;;;;;;;;;5014640;28;20133;-78
2022/04/24 05:08:50;;;;;;;21.00;13.93;;;;;;;;;;5018778;28;20422;-77
2022/04/24 05:11:16;;;;;;;25.58;13.80;;;;;;;;;;4998511;28;20060;-78
2022/04/24 05:13:42;;;;;;;24.50;12.35;;;;;;;;;;5010856;28;20076;-77
2022/04/24 05:16:08;;;;;;;19.63;12.93;;;;;;;;;;5010705;28;20061;-77
2022/04/24 05:18:34;;;;;;;20.83;12.43;;;;;;;;;;5009679;28;20421;-76
2022/04/24 05:21:02;;;;;;;17.98;12.90;;;;;;;;;;5009664;28;20065;-76
2022/04/24 05:23:27;;;;;;;21.80;11.68;;;;;;;;;;5008740;28;20046;-76
2022/04/24 05:25:53;;;;;;;19.02;11.27;;;;;;;;;;5009538;28;20452;-77
2022/04/24 05:28:19;;;;;;;22.55;12.38;;;;;;;;;;5008451;28;20049;-78
2022/04/24 05:30:45;;;;;;;19.42;10.45;;;;;;;;;;5009699;28;20049;-77
2022/04/24 05:33:15;;;;;;;13.98;10.30;;;;;;;;;;5009708;28;20050;-77
2022/04/24 05:35:41;;;;;;;19.75;11.02;;;;;;;;;;5009434;28;20697;-79
2022/04/24 05:38:07;;;;;;;17.17;11.77;;;;;;;;;;5009469;28;20213;-79
2022/04/24 05:40:33;;;;;;;14.98;11.43;;;;;;;;;;5009668;28;20053;-77
2022/04/24 05:42:59;;;;;;;16.23;10.18;;;;;;;;;;5009116;28;20498;-78
2022/04/24 05:45:25;;;;;;;19.02;11.75;;;;;;;;;;5009281;28;20049;-77
2022/04/24 05:47:51;;;;;;;9.95;8.30;;;;;;;;;;5016633;28;20050;-81
2022/04/24 05:50:17;;;;;;;19.73;11.23;;;;;;;;;;5020655;28;20542;-80
2022/04/24 05:52:43;;;;;;;13.50;11.02;;;;;;;;;;5018312;28;20041;-80
2022/04/24 05:55:09;;;;;;;15.57;10.88;;;;;;;;;;5002363;28;20030;-78
2022/04/24 05:57:36;;;;;;;16.33;11.05;;;;;;;;;;5000100;28;20038;-78
2022/04/24 06:00:05;;;;;;;13.68;10.27;;;;;;;;;;5017714;28;20042;-74
2022/04/24 06:02:38;;;;;;;14.57;11.05;;;;;;;;;;5021023;28;20042;-73
2022/04/24 06:05:04;;;;;;;13.80;10.23;;;;;;;;;;4999750;28;20061;-73
2022/04/24 06:07:29;;;;;;;16.13;10.13;;;;;;;;;;5015667;28;20037;-73
2022/04/24 06:09:55;;;;;;;14.68;10.27;;;;;;;;;;5018288;28;20037;-73
2022/04/24 06:12:21;;;;;;;13.63;9.88;;;;;;;;;;5025420;28;20034;-72
2022/04/24 06:14:47;;;;;;;13.25;9.40;;;;;;;;;;4997086;28;20053;-73
2022/04/24 06:17:13;;;;;;;12.15;9.82;;;;;;;;;;4973373;28;20130;-72
2022/04/24 06:19:39;;;;;;;13.50;10.45;;;;;;;;;;4984760;28;20137;-70
2022/04/24 06:22:05;;;;;;;20.77;10.68;;;;;;;;;;4988551;28;20148;-71
2022/04/24 06:24:31;;;;;;;18.17;10.25;;;;;;;;;;4971059;28;20566;-71
2022/04/24 06:26:56;;;;;;;13.20;10.45;;;;;;;;;;4971613;28;20142;-72
2022/04/24 06:29:22;;;;;;;15.48;10.63;;;;;;;;;;4985013;28;20049;-71
2022/04/24 06:31:48;;;;;;;20.52;11.60;;;;;;;;;;4992175;28;20050;-71
2022/04/24 06:34:14;;;;;;;17.30;11.18;;;;;;;;;;4968343;28;20038;-71
2022/04/24 06:36:40;;;;;;;12.07;9.90;;;;;;;;;;4991559;28;20475;-71
2022/04/24 06:39:06;;;;;;;16.67;11.60;;;;;;;;;;4991964;28;20046;-71
2022/04/24 06:41:32;;;;;;;21.17;10.80;;;;;;;;;;4993014;28;20046;-72
2022/04/24 06:43:58;;;;;;;14.98;11.85;;;;;;;;;;4974692;28;20594;-70
2022/04/24 06:46:24;;;;;;;14.50;8.65;;;;;;;;;;4992416;28;20050;-71
2022/04/24 06:48:50;;;;;;;16.48;10.27;;;;;;;;;;4988244;28;20041;-70
2022/04/24 06:51:15;;;;;;;16.08;9.98;;;;;;;;;;4991525;28;20050;-71
2022/04/24 06:53:42;;;;;;;8.90;7.60;;;;;;;;;;4989638;28;20049;-72
2022/04/24 06:56:07;;;;;;;14.90;10.10;;;;;;;;;;4992102;28;20073;-72
2022/04/24 06:58:33;;;;;;;23.60;9.10;;;;;;;;;;4974453;28;20072;-71
2022/04/24 07:00:59;;;;;;;11.77;9.18;;;;;;;;;;4991325;28;20085;-71
2022/04/24 07:03:26;;;;;;;16.63;9.35;;;;;;;;;;4991287;28;20482;-69
2022/04/24 07:06:00;;;;;;;12.60;8.98;;;;;;;;;;4991090;28;20054;-71
2022/04/24 07:08:26;;;;;;;17.77;9.77;;;;;;;;;;4991767;28;20042;-71
2022/04/24 07:10:53;;;;;;;16.90;10.48;;;;;;;;;;4991221;28;20537;-72
2022/04/24 07:13:19;;;;;;;21.48;9.60;;;;;;;;;;4988929;28;20039;-71
2022/04/24 07:15:45;;;;;;;23.52;9.90;;;;;;;;;;5009916;28;20438;-71
2022/04/24 07:18:11;;;;;;;11.55;8.63;;;;;;;;;;5010727;28;20038;-72
2022/04/24 07:20:37;;;;;;;16.27;9.60;;;;;;;;;;5009649;28;20184;-71
2022/04/24 07:23:05;;;;;;;12.18;9.75;;;;;;;;;;5010612;28;20486;-72
2022/04/24 07:25:46;;;;;;;15.77;9.15;;;;;;;;;;5011170;28;20058;-72
2022/04/24 07:28:13;;;;;;;17.50;10.05;;;;;;;;;;5005880;28;20072;-72
2022/04/24 07:30:38;;;;;;;15.50;9.18;;;;;;;;;;5003870;28;20049;-72
2022/04/24 07:33:04;;;;;;;13.82;9.95;;;;;;;;;;5010029;28;20053;-72
2022/04/24 07:35:31;;;;;;;12.25;9.48;;;;;;;;;;5010956;28;20050;-72
2022/04/24 07:37:57;;;;;;;10.57;8.85;;;;;;;;;;5010336;28;20044;-73
2022/04/24 07:40:23;;;;;;;16.25;9.35;;;;;;;;;;5010290;28;20053;-72
2022/04/24 07:42:50;;;;;;;16.27;9.05;;;;;;;;;;5024333;28;20041;-72
2022/04/24 07:45:16;;;;;;;16.42;10.27;;;;;;;;;;5010269;28;20046;-73
2022/04/24 07:47:44;;;;;;;15.93;10.35;;;;;;;;;;5006499;28;20038;-73
2022/04/24 07:50:10;;;;;;;29.52;9.82;;;;;;;;;;5009792;28;20053;-73
2022/04/24 07:52:36;;;;;;;13.90;10.13;;;;;;;;;;5008789;28;20045;-73
2022/04/24 07:55:02;;;;;;;13.77;9.30;;;;;;;;;;5009943;28;20042;-72
2022/04/24 07:57:28;;;;;;;17.30;9.23;;;;;;;;;;5010456;28;20038;-73
2022/04/24 07:59:54;;;;;;;15.57;9.70;;;;;;;;;;5023366;28;20045;-73
2022/04/24 08:02:20;;;;;;;10.90;9.45;;;;;;;;;;5006932;28;20042;-73
2022/04/24 08:04:46;;;;;;;23.83;9.38;;;;;;;;;;5008798;28;20056;-73
2022/04/24 08:07:12;;;;;;;8.93;7.47;;;;;;;;;;5008596;28;20042;-73
2022/04/24 08:09:38;;;;;;;10.45;7.57;;;;;;;;;;5025074;28;20404;-74
2022/04/24 08:12:04;;;;;;;28.52;9.35;;;;;;;;;;5008680;28;20065;-73
2022/04/24 08:14:30;;;;;;;16.77;8.07;;;;;;;;;;5008714;28;20217;-73
2022/04/24 08:16:56;;;;;;;20.45;8.27;;;;;;;;;;5007881;28;20470;-73
2022/04/24 08:19:22;;;;;;;17.67;8.50;;;;;;;;;;5024751;28;20050;-74
2022/04/24 08:21:48;;;;;;;18.83;8.40;;;;;;;;;;5008571;28;20080;-73
2022/04/24 08:24:14;;;;;;;14.65;8.07;;;;;;;;;;5009666;28;20050;-73
2022/04/24 08:26:40;;;;;;;6.63;5.43;;;;;;;;;;5010189;28;20121;-74
2022/04/24 08:29:06;;;;;;;9.15;7.68;;;;;;;;;;5007724;28;20049;-74
2022/04/24 08:31:32;;;;;;;8.30;5.45;;;;;;;;;;5007679;28;20541;-73
2022/04/24 08:33:58;;;;;;;8.15;5.25;;;;;;;;;;5010009;28;20064;-74
2022/04/24 08:36:24;;;;;;;11.43;5.80;;;;;;;;;;5014002;28;20518;-73
2022/04/24 08:38:50;;;;;;;5.50;5.03;;;;;;;;;;4995638;28;20073;-73
2022/04/24 08:41:21;;;;;;;8.27;4.97;;;;;;;;;;5011187;28;20042;-73
2022/04/24 08:43:46;;;;;;;;;;;;;;;;;;5001928;28;20038;-73
2022/04/24 08:46:12;;;;;;;9.48;6.07;;;;;;;;;;5006977;28;19928;-73
2022/04/24 08:48:39;;;;;;;16.13;7.22;;;;;;;;;;5008235;28;20193;-73
2022/04/24 08:51:05;;;;;;;8.70;5.15;;;;;;;;;;5008211;28;20068;-74
2022/04/24 08:53:31;;;;;;;5.45;4.80;;;;;;;;;;5008657;28;20514;-74
2022/04/24 08:55:57;;;;;;;11.98;6.95;;;;;;;;;;5008957;28;20041;-74
2022/04/24 08:58:22;;;;;;;9.57;5.95;;;;;;;;;;5006496;28;20521;-73
2022/04/24 09:00:48;;;;;;;7.05;5.53;;;;;;;;;;5008894;28;20085;-73
2022/04/24 09:03:14;;;;;;;8.57;6.35;;;;;;;;;;5008447;28;20033;-73
2022/04/24 09:05:41;;;;;;;8.07;6.40;;;;;;;;;;5023984;28;20141;-74
2022/04/24 09:08:08;;;;;;;6.53;5.93;;;;;;;;;;5007733;28;20473;-73
2022/04/24 09:10:50;;;;;;;11.68;6.63;;;;;;;;;;5007696;28;20045;-72
2022/04/24 09:14:14;;;;;;;7.40;5.53;;;;;;;;;;4987826;28;20042;-72
2022/04/24 09:16:18;;;;;;;10.27;6.10;;;;;;;;;;4988757;28;20065;-73
2022/04/24 09:18:46;;;;;;;5.30;4.80;;;;;;;;;;4989240;28;20427;-73
2022/04/24 09:21:32;;;;;;;5.28;3.63;;;;;;;;;;4994419;28;20058;-72
2022/04/24 09:23:58;;;;;;;5.05;3.30;;;;;;;;;;5009068;28;20049;-73
2022/04/24 09:26:23;;;;;;;4.68;4.20;;;;;;;;;;5009532;28;20054;-73
2022/04/24 09:28:49;;;;;;;5.88;3.85;;;;;;;;;;5007762;28;20414;-73
2022/04/24 09:31:15;;;;;;;2.97;2.78;;;;;;;;;;5007156;28;20169;-73
2022/04/24 09:33:42;;;;;;;3.50;3.20;;;;;;;;;;5005769;28;20042;-72
2022/04/24 09:36:08;;;;;;;4.03;3.55;;;;;;;;;;5007876;28;20038;-74
2022/04/24 09:38:41;;;;;;;4.70;3.10;;;;;;;;;;5008758;28;20061;-73
2022/04/24 09:41:13;;;;;;;7.07;4.82;;;;;;;;;;4990924;28;20208;-73
2022/04/24 09:43:42;;;;;;;6.68;4.45;;;;;;;;;;5001968;28;20538;-73
2022/04/24 09:46:08;;;;;;;8.80;4.55;;;;;;;;;;5003632;28;20050;-72
2022/04/24 09:48:34;;;;;;;9.13;2.90;;;;;;;;;;5002075;28;20609;-73
2022/04/24 09:51:00;;;;;;;10.18;4.85;;;;;;;;;;5002814;28;20053;-74
2022/04/24 09:53:26;;;;;;;4.15;3.85;;;;;;;;;;5006405;28;20048;-72
2022/04/24 09:55:51;;;;;;;5.55;3.95;;;;;;;;;;4970163;28;20472;-73
2022/04/24 09:58:17;;;;;;;7.35;4.05;;;;;;;;;;5010009;28;20147;-72
2022/04/24 10:00:44;;;;;;;4.47;3.22;;;;;;;;;;5005244;28;20526;-72
2022/04/24 10:03:10;;;;;;;3.85;3.45;;;;;;;;;;5022966;28;20065;-72
2022/04/24 10:05:38;;;;;;;6.70;3.83;;;;;;;;;;5009330;28;20518;-72
2022/04/24 10:08:04;;;;;;;4.97;4.47;;;;;;;;;;5010391;28;20053;-73
2022/04/24 10:10:30;;;;;;;6.25;4.35;;;;;;;;;;5008669;28;20126;-72
2022/04/24 10:12:56;;;;;;;6.15;4.00;;;;;;;;;;4999507;28;20417;-72
2022/04/24 10:15:23;;;;;;;9.20;4.78;;;;;;;;;;5022450;28;20042;-72
2022/04/24 10:17:55;;;;;;;4.93;4.57;;;;;;;;;;5006448;28;20120;-73
2022/04/24 10:20:24;;;;;;;10.85;5.28;;;;;;;;;;5008609;28;20045;-73
2022/04/24 10:22:54;;;;;;;4.45;4.15;;;;;;;;;;5010497;28;20058;-72
2022/04/24 10:25:30;;;;;;;8.97;6.13;;;;;;;;;;4993015;28;20056;-73
2022/04/24 10:27:57;;;;;;;7.10;4.22;;;;;;;;;;5010070;28;20049;-72
2022/04/24 10:30:23;;;;;;;3.38;3.17;;;;;;;;;;5009186;28;20050;-72
2022/04/24 10:32:59;;;;;;;6.30;3.97;;;;;;;;;;5010388;28;20034;-72
2022/04/24 10:35:26;;;;;;;4.93;3.50;;;;;;;;;;5025493;28;20042;-73
2022/04/24 10:38:11;;;;;;;5.72;3.95;;;;;;;;;;5009583;28;20124;-74
2022/04/24 10:40:39;;;;;;;8.50;4.93;;;;;;;;;;5010564;28;20042;-73
2022/04/24 10:43:07;;;;;;;4.18;3.88;;;;;;;;;;5010239;28;20140;-74
2022/04/24 10:45:43;;;;;;;6.35;4.55;;;;;;;;;;5010313;28;20176;-73
2022/04/24 10:48:13;;;;;;;6.13;5.63;;;;;;;;;;4976566;28;20041;-72
2022/04/24 10:50:48;;;;;;;4.95;4.55;;;;;;;;;;5009866;28;20376;-73
2022/04/24 10:53:15;;;;;;;6.13;5.47;;;;;;;;;;5000063;28;20419;-73
2022/04/24 10:55:42;;;;;;;8.75;4.93;;;;;;;;;;5009112;28;20050;-73
2022/04/24 10:58:09;;;;;;;5.82;5.32;;;;;;;;;;5010734;28;20042;-73
2022/04/24 11:00:35;;;;;;;5.65;5.15;;;;;;;;;;4992534;28;20092;-73
2022/04/24 11:03:08;;;;;;;10.20;6.07;;;;;;;;;;5008876;28;20042;-74
2022/04/24 11:05:38;;;;;;;18.38;5.45;;;;;;;;;;5017194;28;20465;-73
2022/04/24 11:08:05;;;;;;;7.47;6.20;;;;;;;;;;5010509;28;20045;-73
2022/04/24 11:10:37;;;;;;;10.63;6.40;;;;;;;;;;5025268;28;20073;-73
2022/04/24 11:13:03;;;;;;;6.07;5.55;;;;;;;;;;5009567;28;20037;-73
2022/04/24 11:15:29;;;;;;;5.78;5.28;;;;;;;;;;5007905;28;20053;-73
2022/04/24 11:17:55;;;;;;;7.50;5.70;;;;;;;;;;5024914;28;20049;-73
2022/04/24 11:20:21;;;;;;;5.38;4.93;;;;;;;;;;5010478;28;20081;-74
2022/04/24 11:22:50;;;;;;;5.97;5.15;;;;;;;;;;5025118;28;20050;-73
2022/04/24 11:25:17;;;;;;;5.00;4.60;;;;;;;;;;5008338;28;20053;-73
2022/04/24 11:27:44;;;;;;;6.00;5.50;;;;;;;;;;5010067;28;20073;-73
2022/04/24 11:30:19;;;;;;;11.18;6.03;;;;;;;;;;5009913;28;20092;-73
2022/04/24 11:32:58;;;;;;;8.40;6.47;;;;;;;;;;5009880;28;20084;-73
2022/04/24 11:35:25;;;;;;;8.05;7.45;;;;;;;;;;5010009;28;20524;-72
2022/04/24 11:37:51;;;;;;;8.45;7.68;;;;;;;;;;4992325;28;20065;-74
2022/04/24 11:40:17;;;;;;;7.95;7.43;;;;;;;;;;4992457;28;20085;-72
2022/04/24 11:42:43;;;;;;;9.82;8.85;;;;;;;;;;5009739;28;20176;-73
2022/04/24 11:51:08;;;;;;;10.75;9.48;;;;;;;;;;5022786;28;20116;-72
2022/04/24 11:53:33;;;;;;;10.40;9.50;;;;;;;;;;5008627;28;20049;-72
2022/04/24 11:56:02;;;;;;;10.23;9.43;;;;;;;;;;5011003;28;20134;-72
2022/04/24 11:58:35;;;;;;;11.30;10.50;;;;;;;;;;5010865;28;20042;-73
2022/04/24 12:01:04;;;;;;;10.70;9.80;;;;;;;;;;5008100;28;20534;-72
2022/04/24 12:03:32;;;;;;;9.73;8.82;;;;;;;;;;5009312;28;20050;-73
2022/04/24 12:05:59;;;;;;;10.38;8.35;;;;;;;;;;5008782;28;20053;-73
2022/04/24 12:08:25;;;;;;;10.60;9.73;;;;;;;;;;5009742;28;20081;-72
2022/04/24 12:10:51;;;;;;;10.35;9.65;;;;;;;;;;5009396;28;20037;-73
2022/04/24 12:13:23;;;;;;;9.00;8.10;;;;;;;;;;5025027;28;20514;-73
2022/04/24 12:15:53;;;;;;;11.85;10.75;;;;;;;;;;4994108;28;20132;-73
2022/04/24 12:18:23;;;;;;;8.55;7.95;;;;;;;;;;5007453;28;20038;-72
2022/04/24 12:20:50;;;;;;;10.15;9.25;;;;;;;;;;5004270;28;20053;-72
2022/04/24 12:23:16;;;;;;;10.00;9.30;;;;;;;;;;5008826;28;20502;-72
2022/04/24 12:25:53;;;;;;;9.30;8.60;;;;;;;;;;5009519;28;20045;-73
2022/04/24 12:28:35;;;;;;;8.88;8.25;;;;;;;;;;5005926;28;20037;-72
2022/04/24 12:31:01;;;;;;;8.20;7.50;;;;;;;;;;5010285;28;20067;-72
2022/04/24 12:33:30;;;;;;;8.55;7.85;;;;;;;;;;5009775;28;20049;-72
2022/04/24 12:36:13;;;;;;;7.88;7.28;;;;;;;;;;5010175;28;20597;-72
2022/04/24 12:38:40;;;;;;;5.88;5.47;;;;;;;;;;5010096;28;20045;-72
2022/04/24 12:41:10;;;;;;;7.10;6.55;;;;;;;;;;5009276;28;20037;-72
2022/04/24 12:43:36;;;;;;;8.48;7.78;;;;;;;;;;5009482;28;20046;-72
2022/04/24 12:46:01;;;;;;;7.28;6.75;;;;;;;;;;5010118;28;20052;-72
2022/04/24 12:48:28;;;;;;;8.05;7.55;;;;;;;;;;5009918;28;20042;-72
2022/04/24 12:50:55;;;;;;;7.55;6.95;;;;;;;;;;5008418;28;20176;-73
2022/04/24 12:53:22;;;;;;;7.00;6.50;;;;;;;;;;5009425;28;20125;-76
2022/04/24 12:55:50;;;;;;;7.72;7.13;;;;;;;;;;5002199;28;20161;-72
2022/04/24 12:58:16;;;;;;;8.30;7.60;;;;;;;;;;4990008;28;20069;-72
2022/04/24 13:00:43;;;;;;;7.03;6.53;;;;;;;;;;4977848;28;20049;-72
2022/04/24 13:03:12;;;;;;;6.55;6.07;;;;;;;;;;4996226;28;20398;-73
2022/04/24 13:05:38;;;;;;;6.35;5.90;;;;;;;;;;4991272;28;20061;-74
2022/04/24 13:08:05;;;;;;;7.18;6.50;;;;;;;;;;4991498;28;20033;-72
2022/04/24 13:10:31;;;;;;;7.35;5.50;;;;;;;;;;4991849;28;20084;-72
2022/04/24 13:13:01;;;;;;;6.30;5.78;;;;;;;;;;5009327;28;20038;-72
2022/04/24 13:15:28;;;;;;;7.50;6.72;;;;;;;;;;4993655;28;20128;-72
2022/04/24 13:18:09;;;;;;;5.13;4.65;;;;;;;;;;5012395;28;20042;-72
2022/04/24 13:20:36;;;;;;;8.10;7.50;;;;;;;;;;5011575;28;20041;-73
2022/04/24 13:23:03;;;;;;;7.32;6.65;;;;;;;;;;4993413;28;20514;-73
2022/04/24 13:25:29;;;;;;;7.97;7.38;;;;;;;;;;5009100;28;20046;-74
2022/04/24 13:27:55;;;;;;;10.07;8.05;;;;;;;;;;5009190;28;20048;-72
2022/04/24 13:30:22;;;;;;;10.35;7.57;;;;;;;;;;5008170;28;20124;-72
2022/04/24 13:32:48;;;;;;;7.78;7.00;;;;;;;;;;5007839;28;20139;-73
2022/04/24 13:35:14;;;;;;;8.73;7.93;;;;;;;;;;5008099;28;20493;-72
2022/04/24 13:40:24;;;;;;;8.13;7.30;;;;;;;;;;5010726;28;20041;-73
2022/04/24 13:42:50;;;;;;;5.45;5.05;;;;;;;;;;5013861;28;20146;-73
2022/04/24 13:45:16;;;;;;;5.70;5.13;;;;;;;;;;5011470;28;20058;-75
2022/04/24 13:47:42;;;;;;;9.10;8.30;;;;;;;;;;5012471;28;20172;-73
2022/04/24 13:50:09;;;;;;;7.03;6.32;;;;;;;;;;4994630;28;20192;-73
2022/04/24 13:52:35;;;;;;;5.78;5.38;;;;;;;;;;4979174;28;20041;-73
2022/04/24 13:55:01;;;;;;;5.15;4.85;;;;;;;;;;5011875;28;20055;-73
2022/04/24 13:57:27;;;;;;;4.53;4.22;;;;;;;;;;5011659;28;20172;-73
2022/04/24 13:59:52;;;;;;;5.30;4.90;;;;;;;;;;5011502;28;20038;-73
2022/04/24 14:02:18;;;;;;;6.80;6.10;;;;;;;;;;5012365;28;20068;-73
2022/04/24 14:04:45;;;;;;;6.25;5.80;;;;;;;;;;5012368;28;20072;-73
2022/04/24 14:07:12;;;;;;;4.68;4.28;;;;;;;;;;4995086;28;20179;-73
2022/04/24 14:09:41;;;;;;;6.30;5.60;;;;;;;;;;5012718;28;20068;-73
2022/04/24 14:12:07;;;;;;;5.90;5.47;;;;;;;;;;5012513;28;20413;-73
2022/04/24 14:14:34;;;;;;;6.30;5.80;;;;;;;;;;5012342;28;20061;-73
2022/04/24 14:17:00;;;;;;;4.43;4.13;;;;;;;;;;5012160;28;20042;-73
2022/04/24 14:19:26;;;;;;;4.93;4.55;;;;;;;;;;5012177;28;20046;-73
2022/04/24 14:21:55;;;;;;;4.60;4.00;;;;;;;;;;5012163;28;20045;-73
2022/04/24 14:24:22;;;;;;;4.80;4.50;;;;;;;;;;5012604;28;20038;-73
2022/04/24 14:26:51;;;;;;;4.50;4.20;;;;;;;;;;4979445;28;20514;-74
2022/04/24 14:29:20;;;;;;;5.30;4.90;;;;;;;;;;5013014;28;20042;-73
2022/04/24 14:31:49;;;;;;;5.97;5.57;;;;;;;;;;5012375;28;20136;-73
2022/04/24 14:34:15;;;;;;;7.07;6.55;;;;;;;;;;4995160;28;20462;-74
2022/04/24 14:36:41;;;;;;;6.53;5.93;;;;;;;;;;4979107;28;20065;-73